Time,TemperatureF,DewpointF,PressureIn,WindDirection,WindDirectionDegrees,WindSpeedMPH,WindSpeedGustMPH,Humidity,HourlyPrecipIn,Conditions,Clouds,dailyrainin,SoftwareType,DateUTC
2013-07-08 00:02:00,79.0,74.0,30.15,NNE,30,0.0,0.0,86,0.00,,,0.00,,2013-07-08 04:02:00,
2013-07-08 00:12:00,78.0,73.0,30.15,NNE,30,0.0,0.0,86,0.00,,,0.00,,2013-07-08 04:12:00,
2013-07-08 00:22:00,78.0,74.0,30.15,NNE,30,0.0,0.0,87,0.00,,,0.00,,2013-07-08 04:22:00,
2013-07-08 00:33:00,78.0,74.0,30.15,NNE,30,0.0,0.0,88,0.00,,,0.00,,2013-07-08 04:33:00,
2013-07-08 00:42:00,78.0,74.0,30.15,NNE,30,0.0,0.0,89,0.00,,,0.00,,2013-07-08 04:42:00,
2013-07-08 00:53:00,78.0,75.0,30.15,NNE,30,0.0,0.0,90,0.00,,,0.00,,2013-07-08 04:53:00,
2013-07-08 01:01:00,77.0,74.0,30.15,NNE,30,0.0,0.0,90,0.00,,,0.00,,2013-07-08 05:01:00,
2013-07-08 01:12:00,77.0,74.0,30.15,NNE,30,0.0,0.0,90,0.00,,,0.00,,2013-07-08 05:12:00,
2013-07-08 01:22:00,77.0,74.0,30.15,NNE,30,0.0,0.0,91,0.00,,,0.00,,2013-07-08 05:22:00,
2013-07-08 01:33:00,77.0,74.0,30.14,NNE,30,0.0,0.0,92,0.00,,,0.00,,2013-07-08 05:33:00,
2013-07-08 01:43:00,77.0,75.0,30.14,East,82,1.0,0.0,95,0.00,,,0.00,,2013-07-08 05:43:00,
2013-07-08 01:53:00,77.0,75.0,30.13,East,82,0.0,0.0,95,0.00,,,0.00,,2013-07-08 05:53:00,
2013-07-08 02:01:00,77.0,76.0,30.13,ENE,65,0.0,0.0,96,0.00,,,0.00,,2013-07-08 06:01:00,
2013-07-08 02:12:00,77.0,76.0,30.13,ENE,65,0.0,0.0,96,0.00,,,0.00,,2013-07-08 06:12:00,
2013-07-08 02:22:00,77.0,76.0,30.13,NE,48,0.0,0.0,96,0.00,,,0.00,,2013-07-08 06:22:00,
2013-07-08 02:33:00,77.0,76.0,30.12,NE,48,0.0,0.0,96,0.00,,,0.00,,2013-07-08 06:33:00,
2013-07-08 02:43:00,77.0,76.0,30.12,NE,48,0.0,0.0,97,0.00,,,0.00,,2013-07-08 06:43:00,
2013-07-08 02:53:00,77.0,76.0,30.12,NE,48,0.0,0.0,97,0.00,,,0.00,,2013-07-08 06:53:00,
2013-07-08 03:02:00,77.0,76.0,30.11,NE,48,0.0,0.0,96,0.00,,,0.00,,2013-07-08 07:02:00,
2013-07-08 03:12:00,77.0,76.0,30.11,NE,48,0.0,0.0,96,0.00,,,0.00,,2013-07-08 07:12:00,
2013-07-08 03:34:00,77.0,76.0,30.12,East,79,0.0,0.0,97,0.00,,,0.00,,2013-07-08 07:34:00,
2013-07-08 03:44:00,76.0,75.0,30.11,East,79,0.0,0.0,97,0.00,,,0.00,,2013-07-08 07:44:00,
2013-07-08 03:53:00,76.0,75.0,30.12,East,79,0.0,0.0,97,0.00,,,0.00,,2013-07-08 07:53:00,
2013-07-08 04:02:00,76.0,75.0,30.12,East,79,0.0,0.0,97,0.00,,,0.00,,2013-07-08 08:02:00,
2013-07-08 04:12:00,76.0,75.0,30.12,East,79,0.0,0.0,96,0.00,,,0.00,,2013-07-08 08:12:00,
2013-07-08 04:22:00,76.0,75.0,30.12,East,79,0.0,0.0,97,0.00,,,0.00,,2013-07-08 08:22:00,
2013-07-08 04:33:00,76.0,75.0,30.12,East,79,0.0,0.0,98,0.00,,,0.00,,2013-07-08 08:33:00,
2013-07-08 04:42:00,76.0,75.0,30.12,East,79,0.0,0.0,98,0.00,,,0.00,,2013-07-08 08:42:00,
2013-07-08 04:53:00,76.0,76.0,30.12,NE,53,0.0,0.0,99,0.00,,,0.00,,2013-07-08 08:53:00,
2013-07-08 05:02:00,76.0,76.0,30.11,NE,45,0.0,0.0,99,0.00,,,0.00,,2013-07-08 09:02:00,
2013-07-08 05:11:00,76.0,76.0,30.11,NE,45,0.0,0.0,99,0.00,,,0.00,,2013-07-08 09:11:00,
2013-07-08 05:22:00,76.0,76.0,30.11,NE,45,0.0,0.0,100,0.00,,,0.00,,2013-07-08 09:22:00,
2013-07-08 05:34:00,75.0,75.0,30.11,ENE,63,0.0,0.0,99,0.00,,,0.00,,2013-07-08 09:34:00,
2013-07-08 05:43:00,75.0,75.0,30.12,ENE,63,0.0,0.0,99,0.00,,,0.00,,2013-07-08 09:43:00,
2013-07-08 05:52:00,75.0,75.0,30.12,ENE,63,0.0,0.0,99,0.00,,,0.00,,2013-07-08 09:52:00,
2013-07-08 06:02:00,75.0,75.0,30.12,ENE,63,0.0,0.0,99,0.00,,,0.00,,2013-07-08 10:02:00,
2013-07-08 06:11:00,75.0,75.0,30.12,ENE,63,0.0,0.0,99,0.00,,,0.00,,2013-07-08 10:11:00,
2013-07-08 06:22:00,75.0,75.0,30.12,ENE,63,0.0,0.0,100,0.00,,,0.00,,2013-07-08 10:22:00,
2013-07-08 06:34:00,75.0,75.0,30.13,ENE,63,0.0,0.0,99,0.00,,,0.00,,2013-07-08 10:34:00,
2013-07-08 06:53:00,75.0,75.0,30.13,NE,48,1.0,0.0,100,0.00,,,0.00,,2013-07-08 10:53:00,
2013-07-08 07:02:00,75.0,75.0,30.13,ENE,63,0.0,0.0,100,0.00,,,0.00,,2013-07-08 11:02:00,
2013-07-08 07:11:00,75.0,75.0,30.14,ENE,63,0.0,0.0,100,0.00,,,0.00,,2013-07-08 11:11:00,
2013-07-08 07:23:00,75.0,75.0,30.14,ENE,63,0.0,0.0,100,0.00,,,0.00,,2013-07-08 11:23:00,
2013-07-08 07:33:00,75.0,75.0,30.13,ENE,63,0.0,0.0,100,0.00,,,0.00,,2013-07-08 11:33:00,
2013-07-08 07:43:00,76.0,76.0,30.14,ENE,63,0.0,0.0,100,0.00,,,0.00,,2013-07-08 11:43:00,
2013-07-08 07:53:00,76.0,76.0,30.14,ENE,73,0.0,0.0,100,0.00,,,0.00,,2013-07-08 11:53:00,
2013-07-08 08:01:00,77.0,77.0,30.14,ENE,75,1.0,1.0,100,0.00,,,0.00,,2013-07-08 12:01:00,
2013-07-08 08:11:00,77.0,77.0,30.14,NE,38,3.0,3.0,100,0.00,,,0.00,,2013-07-08 12:11:00,
2013-07-08 08:22:00,78.0,78.0,30.14,NE,38,0.0,0.0,99,0.00,,,0.00,,2013-07-08 12:22:00,
2013-07-08 08:34:00,79.0,78.0,30.14,NE,38,0.0,0.0,96,0.00,,,0.00,,2013-07-08 12:34:00,
2013-07-08 08:43:00,80.0,77.0,30.14,North,359,3.0,0.0,91,0.00,,,0.00,,2013-07-08 12:43:00,
2013-07-08 08:53:00,80.0,77.0,30.14,North,359,0.0,0.0,90,0.00,,,0.00,,2013-07-08 12:53:00,
2013-07-08 09:02:00,82.0,77.0,30.14,NE,41,0.0,0.0,86,0.00,,,0.00,,2013-07-08 13:02:00,
2013-07-08 09:11:00,83.0,77.0,30.15,NE,53,0.0,0.0,81,0.00,,,0.00,,2013-07-08 13:11:00,
2013-07-08 09:22:00,83.0,76.0,30.15,NE,53,0.0,0.0,80,0.00,,,0.00,,2013-07-08 13:22:00,
2013-07-08 09:53:00,83.0,75.0,30.16,North,359,0.0,0.0,76,0.00,,,0.00,,2013-07-08 13:53:00,
2013-07-08 10:02:00,84.0,74.0,30.16,North,359,0.0,0.0,72,0.00,,,0.00,,2013-07-08 14:02:00,
2013-07-08 10:22:00,84.0,74.0,30.16,North,359,0.0,0.0,71,0.00,,,0.00,,2013-07-08 14:22:00,
2013-07-08 10:43:00,85.0,73.0,30.16,North,359,0.0,0.0,68,0.00,,,0.00,,2013-07-08 14:43:00,
2013-07-08 10:53:00,85.0,73.0,30.16,North,359,0.0,0.0,67,0.00,,,0.00,,2013-07-08 14:53:00,
2013-07-08 11:43:00,86.0,72.0,30.16,ENE,77,3.0,0.0,63,0.00,,,0.00,,2013-07-08 15:43:00,
2013-07-08 11:53:00,86.0,72.0,30.16,NNE,28,4.0,0.0,64,0.00,,,0.00,,2013-07-08 15:53:00,
2013-07-08 12:43:00,87.0,72.0,30.16,NE,49,0.0,0.0,61,0.00,,,0.00,,2013-07-08 16:43:00,
2013-07-08 12:55:00,87.0,72.0,30.16,NW,326,4.0,7.0,61,0.00,,,0.00,,2013-07-08 16:55:00,
2013-07-08 14:23:00,88.0,71.0,30.15,North,359,0.0,0.0,58,0.00,,,0.00,,2013-07-08 18:23:00,
2013-07-08 14:56:00,88.0,70.0,30.14,North,359,0.0,0.0,56,0.00,,,0.00,,2013-07-08 18:56:00,
2013-07-08 15:32:00,88.0,70.0,30.14,North,359,0.0,0.0,55,0.00,,,0.00,,2013-07-08 19:32:00,
2013-07-08 15:51:00,88.0,70.0,30.13,North,359,0.0,0.0,56,0.00,,,0.00,,2013-07-08 19:51:00,
2013-07-08 15:59:00,88.0,69.0,30.13,North,359,0.0,3.0,54,0.00,,,0.00,,2013-07-08 19:59:00,
2013-07-08 16:59:00,88.0,70.0,30.10,North,359,0.0,0.0,55,0.00,,,0.00,,2013-07-08 20:59:00,
2013-07-08 17:41:00,88.0,71.0,30.10,NE,37,3.0,0.0,58,0.00,,,0.00,,2013-07-08 21:41:00,
2013-07-08 17:51:00,87.0,71.0,30.11,NNE,18,6.0,6.0,60,0.00,,,0.00,,2013-07-08 21:51:00,
2013-07-08 18:22:00,86.0,70.0,30.09,North,359,0.0,0.0,60,0.00,,,0.00,,2013-07-08 22:22:00,
2013-07-08 18:53:00,86.0,70.0,30.09,North,359,0.0,0.0,59,0.00,,,0.00,,2013-07-08 22:53:00,
2013-07-08 19:20:00,86.0,70.0,30.09,North,359,0.0,0.0,60,0.00,,,0.00,,2013-07-08 23:20:00,
2013-07-08 19:44:00,86.0,71.0,30.10,North,359,0.0,0.0,61,0.00,,,0.00,,2013-07-08 23:44:00,
2013-07-08 19:54:00,85.0,70.0,30.10,North,359,0.0,0.0,62,0.00,,,0.00,,2013-07-08 23:54:00,
2013-07-08 20:00:00,85.0,71.0,30.10,North,359,0.0,0.0,63,0.00,,,0.00,,2013-07-09 00:00:00,
2013-07-08 20:15:00,85.0,71.0,30.10,North,359,0.0,0.0,64,0.00,,,0.00,,2013-07-09 00:15:00,
2013-07-08 20:31:00,84.0,72.0,30.11,North,359,0.0,0.0,68,0.00,,,0.00,,2013-07-09 00:31:00,
2013-07-08 20:42:00,83.0,72.0,30.12,NE,53,0.0,0.0,69,0.00,,,0.00,,2013-07-09 00:42:00,
2013-07-08 20:53:00,83.0,72.0,30.12,NE,53,0.0,0.0,69,0.00,,,0.00,,2013-07-09 00:53:00,
2013-07-08 20:59:00,83.0,72.0,30.13,NE,53,0.0,0.0,69,0.00,,,0.00,,2013-07-09 00:59:00,
2013-07-08 21:13:00,82.0,71.0,30.14,ENE,70,3.0,4.0,70,0.00,,,0.00,,2013-07-09 01:13:00,
2013-07-08 21:21:00,82.0,71.0,30.14,ENE,66,0.0,0.0,70,0.00,,,0.00,,2013-07-09 01:21:00,
2013-07-08 21:33:00,82.0,71.0,30.14,ENE,66,0.0,0.0,70,0.00,,,0.00,,2013-07-09 01:33:00,
2013-07-08 21:53:00,82.0,72.0,30.15,ENE,66,0.0,0.0,71,0.00,,,0.00,,2013-07-09 01:53:00,
2013-07-08 22:01:00,82.0,72.0,30.16,ENE,66,0.0,0.0,71,0.00,,,0.00,,2013-07-09 02:01:00,
2013-07-08 22:25:00,-999.0,-99.9,30.15,ENE,66,0.0,0.0,72,0.00,,,0.00,,2013-07-09 02:25:00,
2013-07-08 23:32:00,80.0,72.0,30.17,ENE,63,0.0,0.0,78,0.00,,,0.00,,2013-07-09 03:32:00,